createdAt,value
2022-12-04T00:03:04.012Z,1.69
2022-12-04T00:06:11.352Z,1.73
2022-12-04T00:09:16.133Z,1.66
2022-12-04T00:12:20.809Z,1.75
2022-12-04T00:15:26.680Z,1.66
2022-12-04T00:18:33.207Z,1.65
2022-12-04T00:21:37.990Z,1.61
2022-12-04T00:24:42.682Z,1.59
2022-12-04T00:27:47.293Z,1.57
2022-12-04T00:30:52.067Z,1.59
2022-12-04T00:33:58.618Z,1.58
2022-12-04T00:37:03.254Z,1.55
2022-12-04T00:40:10.052Z,1.44
2022-12-04T00:43:15.057Z,1.41
2022-12-04T00:46:20.329Z,1.45
2022-12-04T00:49:27.184Z,1.50
2022-12-04T00:52:31.889Z,1.50
2022-12-04T00:55:39.574Z,1.48
2022-12-04T00:58:44.870Z,1.50
2022-12-04T01:01:49.602Z,1.47
2022-12-04T01:04:55.613Z,1.51
2022-12-04T01:08:00.402Z,1.40
2022-12-04T01:11:07.960Z,1.49
2022-12-04T01:14:13.396Z,1.51
2022-12-04T01:17:18.137Z,1.48
2022-12-04T01:20:24.442Z,1.48
2022-12-04T01:23:29.149Z,1.44
2022-12-04T01:26:34.080Z,1.44
2022-12-04T01:29:38.902Z,1.40
2022-12-04T01:32:43.691Z,1.38
2022-12-04T01:35:56.026Z,1.30
2022-12-04T01:39:00.692Z,1.40
2022-12-04T01:42:05.554Z,1.40
2022-12-04T01:45:42.150Z,1.42
2022-12-04T01:48:53.758Z,1.52
2022-12-04T01:52:02.395Z,1.46
2022-12-04T01:55:08.516Z,1.50
2022-12-04T01:58:14.486Z,1.51
2022-12-04T02:01:19.273Z,1.52
2022-12-04T02:04:24.164Z,1.56
2022-12-04T02:07:30.277Z,1.61
2022-12-04T02:10:44.268Z,1.53
2022-12-04T02:13:56.692Z,1.52
2022-12-04T02:17:11.768Z,1.43
2022-12-04T02:20:24.886Z,1.40
2022-12-04T02:23:57.090Z,1.36
2022-12-04T02:27:05.249Z,1.35
2022-12-04T02:30:15.913Z,1.35
2022-12-04T02:33:23.622Z,1.32
2022-12-04T02:36:31.319Z,1.29
2022-12-04T02:39:40.569Z,1.28
2022-12-04T02:42:49.396Z,1.22
2022-12-04T02:46:00.967Z,1.24
2022-12-04T02:49:12.628Z,1.15
2022-12-04T02:52:22.619Z,1.20
2022-12-04T02:55:32.020Z,1.15
2022-12-04T02:58:42.436Z,1.15
2022-12-04T03:01:52.102Z,1.18
2022-12-04T03:04:58.177Z,1.11
2022-12-04T03:08:06.058Z,1.10
2022-12-04T03:11:11.077Z,1.14
2022-12-04T03:14:19.048Z,1.09
2022-12-04T03:17:28.978Z,1.07
2022-12-04T03:20:35.845Z,1.12
2022-12-04T03:23:47.780Z,1.05
2022-12-04T03:26:58.769Z,0.98
2022-12-04T03:30:07.862Z,1.04
2022-12-04T03:33:19.608Z,0.98
2022-12-04T03:36:28.457Z,1.03
2022-12-04T03:39:39.028Z,0.91
2022-12-04T03:42:48.921Z,0.97
2022-12-04T03:45:59.039Z,0.98
2022-12-04T03:49:12.746Z,0.98
2022-12-04T03:52:24.804Z,0.90
2022-12-04T03:55:33.697Z,0.93
2022-12-04T03:58:42.509Z,0.93
2022-12-04T04:01:50.582Z,0.92
2022-12-04T04:04:59.251Z,0.93
2022-12-04T04:08:21.795Z,0.88
2022-12-04T04:11:32.596Z,0.86
2022-12-04T04:15:10.217Z,0.82
2022-12-04T04:18:32.521Z,0.83
2022-12-04T04:21:58.372Z,0.78
2022-12-04T04:25:06.599Z,0.78
2022-12-04T04:28:32.593Z,0.86
2022-12-04T04:31:41.872Z,0.83
2022-12-04T04:34:55.245Z,0.78
2022-12-04T04:38:08.777Z,0.75
2022-12-04T04:41:19.493Z,0.79
2022-12-04T04:44:29.374Z,0.77
2022-12-04T04:47:46.815Z,0.81
2022-12-04T04:50:52.014Z,0.84
2022-12-04T04:54:00.599Z,0.76
2022-12-04T04:57:05.788Z,0.82
2022-12-04T05:00:16.341Z,0.70
2022-12-04T05:03:21.115Z,0.75
2022-12-04T05:06:25.914Z,0.73
2022-12-04T05:09:34.613Z,0.68
2022-12-04T05:12:41.733Z,0.66
2022-12-04T05:15:46.624Z,0.70
2022-12-04T05:19:05.205Z,0.77
2022-12-04T05:22:10.435Z,0.66
2022-12-04T05:25:16.606Z,0.64
2022-12-04T05:28:22.433Z,0.60
2022-12-04T05:31:27.108Z,0.60
2022-12-04T05:34:32.046Z,0.56
2022-12-04T05:37:39.120Z,0.56
2022-12-04T05:40:45.194Z,0.52
2022-12-04T05:43:49.957Z,0.53
2022-12-04T05:46:54.788Z,0.53
2022-12-04T05:49:59.522Z,0.60
2022-12-04T05:53:04.156Z,0.66
2022-12-04T05:56:11.558Z,0.61
2022-12-04T05:59:16.644Z,0.63
2022-12-04T06:02:39.094Z,0.63
2022-12-04T06:05:43.893Z,0.60
2022-12-04T06:08:48.960Z,0.62
2022-12-04T06:11:59.160Z,0.63
2022-12-04T06:15:04.137Z,0.62
2022-12-04T06:18:09.074Z,0.59
2022-12-04T06:21:14.045Z,0.56
2022-12-04T06:24:21.962Z,0.54
2022-12-04T06:27:28.843Z,0.38
2022-12-04T06:30:35.350Z,0.51
2022-12-04T06:33:40.189Z,0.45
2022-12-04T06:36:44.973Z,0.38
2022-12-04T06:39:49.765Z,0.41
2022-12-04T06:42:55.838Z,0.42
2022-12-04T06:46:06.299Z,0.46
2022-12-04T06:49:12.857Z,0.43
2022-12-04T06:52:17.774Z,0.52
2022-12-04T06:55:22.408Z,0.44
2022-12-04T06:58:29.065Z,0.39
2022-12-04T07:01:36.021Z,0.41
2022-12-04T07:04:40.734Z,0.40
2022-12-04T07:07:45.461Z,0.49
2022-12-04T07:10:53.146Z,0.46
2022-12-04T07:14:03.831Z,0.41
2022-12-04T07:17:09.005Z,0.42
2022-12-04T07:20:15.593Z,0.41
2022-12-04T07:23:20.262Z,0.38
2022-12-04T07:26:26.556Z,0.39
2022-12-04T07:29:32.757Z,0.31
2022-12-04T07:32:37.488Z,0.38
2022-12-04T07:35:42.148Z,0.43
2022-12-04T07:38:47.384Z,0.39
2022-12-04T07:41:51.988Z,0.41
2022-12-04T07:44:58.057Z,0.42
2022-12-04T07:48:02.886Z,0.39
2022-12-04T07:51:09.608Z,0.41
2022-12-04T07:54:14.581Z,0.43
2022-12-04T07:57:19.328Z,0.44
2022-12-04T08:00:25.699Z,0.39
2022-12-04T08:03:30.494Z,0.41
2022-12-04T08:06:36.166Z,0.48
2022-12-04T08:09:40.844Z,0.44
2022-12-04T08:12:45.568Z,0.40
2022-12-04T08:15:51.690Z,0.45
2022-12-04T08:18:57.085Z,0.42
2022-12-04T08:22:01.879Z,0.47
2022-12-04T08:25:08.071Z,0.43
2022-12-04T08:28:14.650Z,0.50
2022-12-04T08:31:22.780Z,0.54
2022-12-04T08:34:27.498Z,0.60
2022-12-04T08:37:32.295Z,0.60
2022-12-04T08:40:36.993Z,0.54
2022-12-04T08:43:41.976Z,0.56
2022-12-04T08:46:48.089Z,0.54
2022-12-04T08:49:52.965Z,0.54
2022-12-04T08:52:57.827Z,0.58
2022-12-04T08:56:02.831Z,0.64
2022-12-04T08:59:08.132Z,0.57
2022-12-04T09:02:16.731Z,0.56
2022-12-04T09:05:21.414Z,0.57
2022-12-04T09:08:26.042Z,0.57
2022-12-04T09:11:32.905Z,0.51
2022-12-04T09:14:37.881Z,0.58
2022-12-04T09:17:43.978Z,0.54
2022-12-04T09:20:58.128Z,0.55
2022-12-04T09:24:02.909Z,0.57
2022-12-04T09:27:14.309Z,0.64
2022-12-04T09:30:19.793Z,0.57
2022-12-04T09:33:25.879Z,0.61
2022-12-04T09:36:30.843Z,0.68
2022-12-04T09:39:35.591Z,0.75
2022-12-04T09:42:46.102Z,0.81
2022-12-04T09:45:54.817Z,0.72
2022-12-04T09:49:05.036Z,0.84
2022-12-04T09:52:21.856Z,0.90
2022-12-04T09:55:30.806Z,0.87
2022-12-04T09:58:42.426Z,0.94
2022-12-04T10:01:49.458Z,0.99
2022-12-04T10:04:55.582Z,1.03
2022-12-04T10:08:06.855Z,0.97
2022-12-04T10:11:16.073Z,0.94
2022-12-04T10:14:33.453Z,0.91
2022-12-04T10:18:02.818Z,0.93
2022-12-04T10:21:34.089Z,0.91
2022-12-04T10:24:45.057Z,0.95
2022-12-04T10:27:54.797Z,0.99
2022-12-04T10:31:03.108Z,1.54
2022-12-04T10:34:14.918Z,1.08
2022-12-04T10:37:20.845Z,0.88
2022-12-04T10:40:32.715Z,1.48
2022-12-04T10:43:44.409Z,1.97
2022-12-04T10:46:49.333Z,1.61
2022-12-04T10:50:01.024Z,1.44
2022-12-04T10:53:13.437Z,1.47
2022-12-04T10:56:22.305Z,1.33
2022-12-04T10:59:27.966Z,1.39
2022-12-04T11:02:34.378Z,1.43
2022-12-04T11:05:45.117Z,1.27
2022-12-04T11:08:53.432Z,1.35
2022-12-04T11:12:09.745Z,1.28
2022-12-04T11:15:17.764Z,1.27
2022-12-04T11:18:25.135Z,1.29
2022-12-04T11:21:32.047Z,1.37
2022-12-04T11:24:40.129Z,1.39
2022-12-04T11:27:49.566Z,1.35
2022-12-04T11:30:57.016Z,1.30
2022-12-04T11:34:04.437Z,1.22
2022-12-04T11:37:21.269Z,1.15
2022-12-04T11:40:28.286Z,1.06
2022-12-04T11:43:34.220Z,1.11
2022-12-04T11:46:39.001Z,1.03
2022-12-04T11:49:44.103Z,1.12
2022-12-04T11:53:03.808Z,1.12
2022-12-04T11:56:23.075Z,1.12
2022-12-04T11:59:55.461Z,1.17
2022-12-04T12:03:13.427Z,1.12
2022-12-04T12:06:32.297Z,1.06
2022-12-04T12:09:42.886Z,1.05
2022-12-04T12:12:58.723Z,1.01
2022-12-04T12:16:10.970Z,1.01
2022-12-04T12:19:39.395Z,1.13
2022-12-04T12:23:22.139Z,1.06
2022-12-04T12:26:35.718Z,1.15
2022-12-04T12:29:56.933Z,1.02
2022-12-04T12:33:11.891Z,1.11
2022-12-04T12:36:17.070Z,1.08
2022-12-04T12:39:24.820Z,1.17
2022-12-04T12:42:34.038Z,1.18
2022-12-04T12:45:47.133Z,1.08
2022-12-04T12:49:00.805Z,1.14
2022-12-04T12:52:08.569Z,1.08
2022-12-04T12:55:19.553Z,1.08
2022-12-04T12:58:30.395Z,1.09
2022-12-04T13:01:46.373Z,1.21
2022-12-04T13:04:53.550Z,0.98
2022-12-04T13:08:04.809Z,0.89
2022-12-04T13:11:14.122Z,0.89
2022-12-04T13:14:19.156Z,0.82
2022-12-04T13:17:32.306Z,0.70
2022-12-04T13:20:45.479Z,0.75
2022-12-04T13:23:57.664Z,0.84
2022-12-04T13:27:08.386Z,0.91
2022-12-04T13:30:19.107Z,0.80
2022-12-04T13:33:50.139Z,0.75
2022-12-04T13:37:27.995Z,0.76
2022-12-04T13:40:37.078Z,0.79
2022-12-04T13:43:48.069Z,0.92
2022-12-04T13:46:57.655Z,0.90
2022-12-04T13:50:30.946Z,0.92
2022-12-04T13:53:39.842Z,0.94
2022-12-04T13:56:46.257Z,0.85
2022-12-04T14:00:01.955Z,0.85
2022-12-04T14:03:25.946Z,0.86
2022-12-04T14:06:39.385Z,0.89
2022-12-04T14:09:50.568Z,0.87
2022-12-04T14:13:01.199Z,0.70
2022-12-04T14:16:08.308Z,0.68
2022-12-04T14:19:29.141Z,0.89
2022-12-04T14:22:45.066Z,0.90
2022-12-04T14:25:51.256Z,0.93
2022-12-04T14:29:07.908Z,0.94
2022-12-04T14:32:19.315Z,0.81
2022-12-04T14:35:26.005Z,0.88
2022-12-04T14:38:32.490Z,0.79
2022-12-04T14:41:37.154Z,0.70
2022-12-04T14:44:42.090Z,0.73
2022-12-04T14:47:56.705Z,0.72
2022-12-04T14:51:12.256Z,0.77
2022-12-04T14:54:27.208Z,0.79
2022-12-04T14:57:47.636Z,0.89
2022-12-04T15:00:53.149Z,0.92
2022-12-04T15:04:00.619Z,0.85
2022-12-04T15:10:39.346Z,0.96
2022-12-04T15:13:44.735Z,0.90
2022-12-04T15:16:49.310Z,0.80
2022-12-04T15:19:53.987Z,0.85
2022-12-04T15:22:59.052Z,0.83
2022-12-04T15:26:08.240Z,0.83
2022-12-04T15:29:18.910Z,0.92
2022-12-04T15:32:25.775Z,0.73
2022-12-04T15:35:33.384Z,0.82
2022-12-04T15:38:38.362Z,0.73
2022-12-04T15:41:44.418Z,0.73
2022-12-04T15:44:54.332Z,0.73
2022-12-04T15:47:59.366Z,0.59
2022-12-04T15:51:06.740Z,0.67
2022-12-04T15:54:17.221Z,0.68
2022-12-04T15:57:29.255Z,0.75
2022-12-04T16:00:37.338Z,0.70
2022-12-04T16:03:49.032Z,0.80
2022-12-04T16:06:54.921Z,0.71
2022-12-04T16:10:04.440Z,0.80
2022-12-04T16:13:31.159Z,0.65
2022-12-04T16:16:37.155Z,0.72
2022-12-04T16:19:42.935Z,0.69
2022-12-04T16:22:51.621Z,0.71
2022-12-04T16:25:58.914Z,0.73
2022-12-04T16:29:08.282Z,0.71
2022-12-04T16:32:15.865Z,0.83
2022-12-04T16:35:21.368Z,0.79
2022-12-04T16:38:26.307Z,0.71
2022-12-04T16:41:30.979Z,0.62
2022-12-04T16:44:40.572Z,0.65
2022-12-04T16:47:46.756Z,0.76
2022-12-04T16:50:51.694Z,0.64
2022-12-04T16:53:56.734Z,0.72
2022-12-04T16:57:01.943Z,0.56
2022-12-04T17:00:12.526Z,0.67
2022-12-04T17:03:22.489Z,0.62
2022-12-04T17:06:27.258Z,0.56
2022-12-04T17:09:31.979Z,0.53
2022-12-04T17:12:36.730Z,0.56
2022-12-04T17:15:42.741Z,0.54
2022-12-04T17:18:47.570Z,0.45
2022-12-04T17:21:52.247Z,0.45
2022-12-04T17:24:57.488Z,0.50
2022-12-04T17:28:02.386Z,0.38
2022-12-04T17:31:15.790Z,0.52
2022-12-04T17:34:20.475Z,0.52
2022-12-04T17:37:25.496Z,0.45
2022-12-04T17:40:30.220Z,0.44
2022-12-04T17:43:36.467Z,0.49
2022-12-04T17:46:42.735Z,0.50
2022-12-04T17:49:47.622Z,0.56
2022-12-04T17:52:52.300Z,0.50
2022-12-04T17:55:56.990Z,0.50
2022-12-04T17:59:01.852Z,0.35
2022-12-04T18:02:08.005Z,0.34
2022-12-04T18:05:13.320Z,0.35
2022-12-04T18:08:18.135Z,0.36
2022-12-04T18:11:24.816Z,0.39
2022-12-04T18:14:31.781Z,0.66
2022-12-04T18:17:39.691Z,0.53
2022-12-04T18:20:44.435Z,0.59
2022-12-04T18:23:49.092Z,0.61
2022-12-04T18:26:53.913Z,0.61
2022-12-04T18:30:00.748Z,0.64
2022-12-04T18:33:06.818Z,0.66
2022-12-04T18:36:16.474Z,0.66
2022-12-04T18:39:23.911Z,0.79
2022-12-04T18:42:28.748Z,0.59
2022-12-04T18:45:33.479Z,0.60
2022-12-04T18:48:40.461Z,0.59
2022-12-04T18:51:49.933Z,0.75
2022-12-04T18:54:55.177Z,0.73
2022-12-04T18:57:59.821Z,0.70
2022-12-04T19:01:07.891Z,0.50
2022-12-04T19:04:17.390Z,0.58
2022-12-04T19:07:22.086Z,0.68
2022-12-04T19:10:27.382Z,0.71
2022-12-04T19:13:32.272Z,0.81
2022-12-04T19:16:36.977Z,0.70
2022-12-04T19:19:43.261Z,0.65
2022-12-04T19:22:48.345Z,0.67
2022-12-04T19:26:00.027Z,0.73
2022-12-04T19:29:05.756Z,0.60
2022-12-04T19:32:13.362Z,0.72
2022-12-04T19:35:19.512Z,0.69
2022-12-04T19:38:24.381Z,0.66
2022-12-04T19:41:31.171Z,0.71
2022-12-04T19:44:51.215Z,0.71
2022-12-04T19:47:56.342Z,0.59
2022-12-04T19:51:07.429Z,0.66
2022-12-04T19:54:15.325Z,0.74
2022-12-04T19:57:19.997Z,0.81
2022-12-04T20:00:24.805Z,0.78
2022-12-04T20:03:29.588Z,0.81
2022-12-04T20:06:40.654Z,0.96
2022-12-04T20:09:52.098Z,0.91
2022-12-04T20:12:57.555Z,0.99
2022-12-04T20:16:03.465Z,0.92
2022-12-04T20:19:13.873Z,0.89
2022-12-04T20:22:19.998Z,0.96
2022-12-04T20:25:24.937Z,0.96
2022-12-04T20:28:29.773Z,0.97
2022-12-04T20:31:36.399Z,0.98
2022-12-04T20:34:43.804Z,1.07
2022-12-04T20:37:50.189Z,0.87
2022-12-04T20:40:54.847Z,0.92
2022-12-04T20:44:01.911Z,1.00
2022-12-04T20:47:06.714Z,0.99
2022-12-04T20:50:13.313Z,1.13
2022-12-04T20:53:19.533Z,0.99
2022-12-04T20:56:25.964Z,0.95
2022-12-04T20:59:30.737Z,0.97
2022-12-04T21:02:35.565Z,0.98
2022-12-04T21:05:40.262Z,1.08
2022-12-04T21:08:56.670Z,1.12
2022-12-04T21:12:01.550Z,1.01
2022-12-04T21:15:25.041Z,0.98
2022-12-04T21:18:29.846Z,1.11
2022-12-04T21:21:35.887Z,1.07
2022-12-04T21:24:42.312Z,1.01
2022-12-04T21:27:47.126Z,1.06
2022-12-04T21:30:51.807Z,1.05
2022-12-04T21:33:56.710Z,0.96
2022-12-04T21:37:01.476Z,0.96
2022-12-04T21:40:10.808Z,0.90
2022-12-04T21:43:15.622Z,0.91
2022-12-04T21:46:20.351Z,0.80
2022-12-04T21:49:25.073Z,0.80
2022-12-04T21:52:29.952Z,0.79
2022-12-04T21:55:36.240Z,0.92
2022-12-04T21:58:40.913Z,0.87
2022-12-04T22:01:45.822Z,0.91
2022-12-04T22:04:50.789Z,0.87
2022-12-04T22:07:55.485Z,0.91
2022-12-04T22:11:01.560Z,0.92
2022-12-04T22:14:06.433Z,1.08
2022-12-04T22:17:10.840Z,1.07
2022-12-04T22:20:15.594Z,1.00
2022-12-04T22:23:20.310Z,0.98
2022-12-04T22:26:27.255Z,1.07
2022-12-04T22:29:49.765Z,1.11
2022-12-04T22:32:55.845Z,1.07
2022-12-04T22:36:04.231Z,1.16
2022-12-04T22:39:10.397Z,1.07
2022-12-04T22:42:17.213Z,1.20
2022-12-04T22:45:22.058Z,1.13
2022-12-04T22:48:29.478Z,1.13
2022-12-04T22:51:34.248Z,1.18
2022-12-04T22:54:38.885Z,1.27
2022-12-04T22:57:45.217Z,1.23
2022-12-04T23:00:50.184Z,1.07
2022-12-04T23:03:55.517Z,1.14
2022-12-04T23:07:00.167Z,1.27
2022-12-04T23:10:05.820Z,1.26
2022-12-04T23:13:12.083Z,1.05
2022-12-04T23:16:20.122Z,1.16
2022-12-04T23:19:25.543Z,1.08
2022-12-04T23:22:30.253Z,1.07
2022-12-04T23:25:40.406Z,1.07
2022-12-04T23:28:46.836Z,0.99
2022-12-04T23:31:51.693Z,1.09
2022-12-04T23:34:56.459Z,1.23
2022-12-04T23:38:01.084Z,1.14
2022-12-04T23:41:08.949Z,1.07
2022-12-04T23:44:15.078Z,0.98
2022-12-04T23:47:19.914Z,0.95
2022-12-04T23:50:25.012Z,1.07
2022-12-04T23:53:30.017Z,1.13
2022-12-04T23:56:34.693Z,1.18
2022-12-04T23:59:40.923Z,1.15
